Time;durP1;ratioP1;P1;durP2;ratioP2;P2;SDS_P1;SDS_P2;PMS_P1;PMS_P2;Temp;Humidity;BMP_temperature;BMP_pressure;BME280_temperature;BME280_humidity;BME280_pressure;Samples;Min_cycle;Max_cycle;Signal;HPM_P1;HPM_P2
2021/01/16 00:01:05;;;;;;;11.33;5.53;;;0.10;75.30;;;;;;5069897;28;20036;-75
2021/01/16 00:03:31;;;;;;;12.03;5.80;;;0.10;75.10;;;;;;5072867;28;20051;-76
2021/01/16 00:05:59;;;;;;;13.23;5.77;;;0.00;75.20;;;;;;5072449;28;20036;-78
2021/01/16 00:08:27;;;;;;;11.20;5.50;;;0.00;75.60;;;;;;5072760;28;20036;-77
2021/01/16 00:10:55;;;;;;;11.77;5.43;;;0.00;75.40;;;;;;5070817;28;20025;-77
2021/01/16 00:13:23;;;;;;;11.13;5.70;;;0.00;75.40;;;;;;5072646;28;20102;-76
2021/01/16 00:15:49;;;;;;;11.53;5.37;;;0.00;75.40;;;;;;5072627;28;20400;-75
2021/01/16 00:18:17;;;;;;;12.73;5.90;;;0.10;75.50;;;;;;5072144;28;20037;-77
2021/01/16 00:20:45;;;;;;;11.47;5.53;;;0.10;75.40;;;;;;5071191;28;20056;-76
2021/01/16 00:23:11;;;;;;;12.70;6.30;;;0.10;75.30;;;;;;5071974;28;20054;-77
2021/01/16 00:25:37;;;;;;;12.03;6.00;;;0.00;75.10;;;;;;5054451;28;20481;-78
2021/01/16 00:28:04;;;;;;;10.83;5.57;;;0.00;75.00;;;;;;5072368;28;20040;-77
2021/01/16 00:30:34;;;;;;;11.27;5.67;;;0.00;75.30;;;;;;5069218;28;20043;-77
2021/01/16 00:33:13;;;;;;;10.60;5.10;;;0.00;75.30;;;;;;5052309;28;20039;-76
2021/01/16 00:35:39;;;;;;;11.17;5.53;;;0.00;75.30;;;;;;5051943;28;20037;-77
2021/01/16 00:38:05;;;;;;;12.20;5.97;;;0.00;75.30;;;;;;5052158;28;20680;-77
2021/01/16 00:40:30;;;;;;;10.70;5.70;;;0.00;75.30;;;;;;5032918;28;20037;-77
2021/01/16 00:42:56;;;;;;;12.83;5.97;;;0.10;75.30;;;;;;5050658;28;20037;-77
2021/01/16 00:45:23;;;;;;;12.77;6.00;;;0.00;75.10;;;;;;5052163;28;20036;-77
2021/01/16 00:47:50;;;;;;;11.83;5.77;;;0.00;75.10;;;;;;5050228;28;20047;-76
2021/01/16 00:50:18;;;;;;;10.93;5.60;;;0.00;74.90;;;;;;5051161;28;20112;-77
2021/01/16 00:52:58;;;;;;;11.43;5.60;;;0.00;74.90;;;;;;5050993;28;20497;-74
2021/01/16 00:55:31;;;;;;;12.37;6.00;;;0.00;75.00;;;;;;5067197;28;20116;-74
2021/01/16 00:57:57;;;;;;;13.17;5.80;;;0.00;74.70;;;;;;5049762;28;20059;-74
2021/01/16 01:00:28;;;;;;;;;;;-0.10;75.30;;;;;;5050442;28;20402;-74
2021/01/16 01:02:55;;;;;;;11.00;5.23;;;-0.10;74.80;;;;;;5070067;28;19919;-74
2021/01/16 01:05:23;;;;;;;12.13;5.83;;;-0.10;74.80;;;;;;5071509;28;20033;-75
2021/01/16 01:07:50;;;;;;;10.33;5.30;;;-0.10;75.10;;;;;;5070417;28;20068;-75
2021/01/16 01:10:23;;;;;;;12.57;5.43;;;-0.20;74.40;;;;;;5069855;28;20097;-74
2021/01/16 01:12:49;;;;;;;10.47;5.40;;;-0.20;74.60;;;;;;5071185;28;20048;-75
2021/01/16 01:15:15;;;;;;;12.90;6.50;;;-0.20;74.70;;;;;;5070933;28;20524;-74
2021/01/16 01:17:40;;;;;;;11.07;5.87;;;-0.20;74.50;;;;;;5070991;28;20047;-74
2021/01/16 01:20:07;;;;;;;11.33;5.50;;;-0.20;74.60;;;;;;5068851;28;20078;-74
2021/01/16 01:22:37;;;;;;;11.67;5.00;;;-0.20;74.60;;;;;;5053007;28;20044;-74
2021/01/16 01:25:04;;;;;;;12.07;5.65;;;-0.20;74.70;;;;;;5050036;28;20045;-74
2021/01/16 01:27:30;;;;;;;11.00;5.60;;;-0.20;74.50;;;;;;5050926;28;20033;-74
2021/01/16 01:29:56;;;;;;;11.23;5.47;;;-0.20;74.50;;;;;;5050486;28;20044;-74
2021/01/16 01:32:22;;;;;;;10.87;5.90;;;-0.20;74.80;;;;;;5065214;28;20044;-73
2021/01/16 01:34:47;;;;;;;11.77;5.80;;;-0.20;74.70;;;;;;5071263;28;20044;-74
2021/01/16 01:37:13;;;;;;;11.50;5.37;;;-0.10;74.60;;;;;;5069872;28;20048;-74
2021/01/16 01:39:39;;;;;;;12.97;5.67;;;-0.10;75.10;;;;;;5070029;28;20036;-75
2021/01/16 01:42:05;;;;;;;13.07;5.27;;;-0.10;74.50;;;;;;5068695;28;20067;-75
2021/01/16 01:44:30;;;;;;;11.37;5.90;;;-0.10;74.30;;;;;;5070758;28;20040;-74
2021/01/16 01:46:56;;;;;;;11.70;5.40;;;-0.10;74.20;;;;;;5069582;28;20041;-74
2021/01/16 01:49:22;;;;;;;10.60;5.20;;;-0.10;74.40;;;;;;5071036;28;20040;-74
2021/01/16 01:51:49;;;;;;;9.97;4.87;;;-0.10;74.50;;;;;;5069231;28;20037;-74
2021/01/16 01:54:17;;;;;;;11.73;5.60;;;-0.10;74.60;;;;;;5069616;28;20470;-74
2021/01/16 01:56:44;;;;;;;11.30;5.97;;;-0.10;74.50;;;;;;5069486;28;20036;-74
2021/01/16 01:59:13;;;;;;;10.57;4.93;;;-0.10;74.50;;;;;;5070300;28;20416;-74
2021/01/16 02:01:49;;;;;;;12.20;5.50;;;-0.10;74.30;;;;;;5069516;28;20036;-74
2021/01/16 02:04:16;;;;;;;11.37;5.37;;;0.00;74.20;;;;;;5070783;28;20033;-74
2021/01/16 02:06:42;;;;;;;10.37;5.23;;;0.00;74.20;;;;;;5070780;28;20051;-75
2021/01/16 02:09:07;;;;;;;11.43;5.33;;;0.00;74.30;;;;;;5069284;28;20054;-74
2021/01/16 02:11:33;;;;;;;11.30;5.60;;;0.00;74.30;;;;;;5069026;28;20037;-74
2021/01/16 02:13:59;;;;;;;10.40;5.40;;;0.00;74.40;;;;;;5069760;28;20568;-75
2021/01/16 02:16:47;;;;;;;10.83;5.27;;;0.00;74.40;;;;;;5070308;28;20044;-74
2021/01/16 02:19:13;;;;;;;10.80;5.43;;;0.00;74.20;;;;;;5069086;28;20405;-75
2021/01/16 02:21:46;;;;;;;13.07;5.93;;;0.00;74.40;;;;;;5068881;28;20032;-74
2021/01/16 02:24:17;;;;;;;11.67;5.60;;;0.00;74.50;;;;;;5069154;28;20112;-74
2021/01/16 02:27:13;;;;;;;10.70;5.33;;;0.00;74.40;;;;;;5069416;28;20063;-75
2021/01/16 02:29:39;;;;;;;11.53;5.40;;;0.00;74.30;;;;;;5069437;28;20020;-74
2021/01/16 02:32:07;;;;;;;11.97;5.77;;;-0.10;74.00;;;;;;5068666;28;20405;-74
2021/01/16 02:34:47;;;;;;;12.40;5.93;;;-0.10;74.30;;;;;;5070094;28;20504;-74
2021/01/16 02:37:21;;;;;;;11.90;5.80;;;0.00;74.50;;;;;;5069127;28;20412;-75
2021/01/16 02:40:40;;;;;;;11.97;5.30;;;-0.10;74.50;;;;;;5068821;28;20041;-75
2021/01/16 02:43:33;;;;;;;12.10;5.77;;;-0.10;74.60;;;;;;5008231;28;20137;-75
2021/01/16 02:46:27;;;;;;;12.13;5.47;;;-0.10;74.50;;;;;;5007957;28;20402;-74
2021/01/16 02:49:04;;;;;;;13.03;6.03;;;-0.10;74.20;;;;;;5047619;28;20142;-74
2021/01/16 02:52:02;;;;;;;13.40;5.50;;;-0.10;74.60;;;;;;5058039;28;20485;-74
2021/01/16 02:54:28;;;;;;;12.20;6.10;;;-0.10;74.70;;;;;;5065596;28;20033;-74
2021/01/16 02:56:54;;;;;;;10.87;5.23;;;-0.10;74.50;;;;;;5072760;28;20124;-74
2021/01/16 02:59:20;;;;;;;12.60;5.60;;;-0.10;74.60;;;;;;5073573;28;20133;-74
2021/01/16 03:01:46;;;;;;;13.40;5.90;;;-0.10;74.50;;;;;;5071942;28;20047;-74
2021/01/16 03:04:12;;;;;;;13.70;6.30;;;-0.20;75.20;;;;;;5055898;28;20033;-75
2021/01/16 03:06:51;;;;;;;12.37;5.83;;;-0.10;74.90;;;;;;5072188;28;20185;-74
2021/01/16 03:09:18;;;;;;;12.13;5.83;;;-0.10;75.10;;;;;;5072557;28;20037;-74
2021/01/16 03:11:45;;;;;;;12.93;6.33;;;-0.10;75.00;;;;;;5072078;28;20040;-74
2021/01/16 03:14:12;;;;;;;12.07;6.23;;;-0.10;75.10;;;;;;5072385;28;20040;-74
2021/01/16 03:16:54;;;;;;;12.33;6.20;;;0.00;75.20;;;;;;5071720;28;20131;-74
2021/01/16 03:19:28;;;;;;;12.90;6.57;;;0.00;75.10;;;;;;5071752;28;20397;-74
2021/01/16 03:21:54;;;;;;;12.53;6.00;;;0.00;75.20;;;;;;5072945;28;20032;-74
2021/01/16 03:24:20;;;;;;;12.07;6.30;;;0.00;75.20;;;;;;5055527;28;20075;-74
2021/01/16 03:26:46;;;;;;;12.13;5.80;;;0.00;75.10;;;;;;5071898;28;20531;-74
2021/01/16 03:29:11;;;;;;;13.30;5.73;;;0.00;75.00;;;;;;5073359;28;20052;-74
2021/01/16 03:31:37;;;;;;;11.27;5.80;;;0.00;75.00;;;;;;5072743;28;20416;-75
2021/01/16 03:34:03;;;;;;;12.23;6.07;;;0.00;75.20;;;;;;5072925;28;20036;-74
2021/01/16 03:36:28;;;;;;;13.07;6.07;;;0.00;75.30;;;;;;5072024;28;20084;-74
2021/01/16 03:38:55;;;;;;;11.60;6.00;;;-0.10;75.00;;;;;;5071648;28;20136;-74
2021/01/16 03:41:20;;;;;;;12.83;6.50;;;0.00;75.20;;;;;;5072133;28;20036;-74
2021/01/16 03:43:46;;;;;;;13.77;6.53;;;0.00;75.10;;;;;;5071955;28;20044;-74
2021/01/16 03:46:12;;;;;;;12.37;5.80;;;-0.10;75.10;;;;;;5057746;28;20523;-75
2021/01/16 03:48:39;;;;;;;12.40;6.00;;;-0.10;75.20;;;;;;5052930;28;20069;-74
2021/01/16 03:51:05;;;;;;;12.70;6.10;;;-0.10;75.00;;;;;;5051915;28;20436;-74
2021/01/16 03:53:31;;;;;;;11.53;6.07;;;-0.20;75.10;;;;;;5052877;28;20058;-74
2021/01/16 03:55:57;;;;;;;10.97;5.83;;;-0.20;75.00;;;;;;5052880;28;20153;-75
2021/01/16 03:58:22;;;;;;;11.67;6.03;;;-0.20;75.10;;;;;;5052581;28;20057;-74
2021/01/16 04:00:48;;;;;;;12.53;5.73;;;-0.20;75.10;;;;;;5051951;28;20114;-74
2021/01/16 04:03:14;;;;;;;11.70;6.27;;;-0.20;75.10;;;;;;5051922;28;20049;-74
2021/01/16 04:05:39;;;;;;;10.80;5.50;;;-0.20;75.20;;;;;;5051326;28;20033;-74
2021/01/16 04:08:05;;;;;;;12.10;5.87;;;-0.10;75.30;;;;;;5051383;28;20045;-74
2021/01/16 04:10:31;;;;;;;11.30;5.70;;;-0.10;75.10;;;;;;5051540;28;20043;-74
2021/01/16 04:12:56;;;;;;;11.77;5.60;;;-0.10;75.10;;;;;;5052519;28;20121;-74
2021/01/16 04:15:22;;;;;;;11.00;5.43;;;-0.10;75.20;;;;;;5052140;28;20044;-73
2021/01/16 04:17:49;;;;;;;13.63;6.00;;;-0.10;74.80;;;;;;5051023;28;20556;-74
2021/01/16 04:20:15;;;;;;;11.60;5.63;;;-0.10;74.80;;;;;;5050452;28;20489;-74
2021/01/16 04:22:40;;;;;;;11.63;5.73;;;-0.10;74.90;;;;;;5050412;28;20041;-74
2021/01/16 04:25:06;;;;;;;13.83;5.87;;;-0.20;75.10;;;;;;5052412;28;20082;-74
2021/01/16 04:27:33;;;;;;;11.77;5.63;;;-0.10;75.10;;;;;;5050611;28;20120;-74
2021/01/16 04:30:00;;;;;;;13.37;5.83;;;-0.20;75.10;;;;;;5051522;28;20238;-74
2021/01/16 04:32:26;;;;;;;15.60;5.87;;;-0.10;75.20;;;;;;5052185;28;20033;-74
2021/01/16 04:34:52;;;;;;;11.00;5.30;;;-0.10;75.10;;;;;;5051658;28;20119;-74
2021/01/16 04:37:18;;;;;;;12.30;5.90;;;-0.10;75.10;;;;;;5052081;28;20033;-74
2021/01/16 04:39:44;;;;;;;12.03;5.70;;;-0.10;74.90;;;;;;5051606;28;21127;-74
2021/01/16 04:42:14;;;;;;;12.00;6.00;;;-0.10;75.00;;;;;;5051468;28;20517;-74
2021/01/16 04:44:43;;;;;;;14.10;6.53;;;-0.10;75.10;;;;;;5051828;28;20041;-74
2021/01/16 04:47:16;;;;;;;12.97;6.13;;;-0.10;75.10;;;;;;5051617;28;20041;-74
2021/01/16 04:49:42;;;;;;;11.63;5.77;;;-0.10;75.30;;;;;;5049902;28;20409;-74
2021/01/16 04:52:10;;;;;;;12.70;5.97;;;-0.10;75.20;;;;;;5049964;28;20040;-75
2021/01/16 04:54:37;;;;;;;12.30;6.17;;;-0.10;75.20;;;;;;5051623;28;20436;-74
2021/01/16 04:57:04;;;;;;;12.63;5.97;;;-0.10;75.20;;;;;;5051257;28;20055;-74
2021/01/16 04:59:30;;;;;;;11.73;5.80;;;0.00;75.20;;;;;;5049957;28;20040;-75
2021/01/16 05:01:57;;;;;;;13.60;5.80;;;0.00;75.30;;;;;;5051470;28;20048;-74
2021/01/16 05:04:24;;;;;;;12.60;6.37;;;0.00;75.20;;;;;;5049989;28;20075;-75
2021/01/16 05:06:51;;;;;;;12.83;5.83;;;0.00;75.20;;;;;;5051344;28;20045;-74
2021/01/16 05:09:18;;;;;;;12.07;5.90;;;0.00;75.10;;;;;;5051456;28;20041;-74
2021/01/16 05:12:05;;;;;;;11.47;5.77;;;0.00;75.70;;;;;;5050567;28;20033;-74
2021/01/16 05:14:43;;;;;;;13.03;5.97;;;0.00;75.20;;;;;;5051001;28;20041;-74
2021/01/16 05:17:11;;;;;;;9.73;5.07;;;0.00;75.20;;;;;;5050060;28;20048;-74
2021/01/16 05:19:37;;;;;;;11.07;5.43;;;0.00;75.40;;;;;;5049002;28;20497;-74
2021/01/16 05:22:03;;;;;;;12.40;5.60;;;0.00;75.40;;;;;;5051187;28;20071;-74
2021/01/16 05:24:29;;;;;;;11.53;5.87;;;0.00;75.40;;;;;;5050926;28;20451;-70
2021/01/16 05:27:07;;;;;;;11.67;5.67;;;0.10;75.90;;;;;;5049941;28;20064;-74
2021/01/16 05:29:34;;;;;;;11.60;5.70;;;0.10;75.30;;;;;;5050720;28;20041;-74
2021/01/16 05:32:03;;;;;;;11.00;5.67;;;0.00;75.30;;;;;;5050607;28;20036;-74
2021/01/16 05:34:30;;;;;;;12.17;6.03;;;0.10;75.30;;;;;;5051235;28;20116;-74
2021/01/16 05:36:58;;;;;;;11.63;5.67;;;0.10;75.20;;;;;;5050515;28;20041;-73
2021/01/16 05:39:27;;;;;;;11.03;5.63;;;0.00;75.20;;;;;;5050215;28;20037;-67
2021/01/16 05:42:02;;;;;;;12.37;5.67;;;0.00;75.00;;;;;;5032740;28;20064;-67
2021/01/16 05:44:31;;;;;;;11.97;5.80;;;0.00;75.20;;;;;;5051012;28;20037;-68
2021/01/16 05:46:57;;;;;;;13.53;6.13;;;0.00;75.30;;;;;;5050588;28;20029;-68
2021/01/16 05:49:24;;;;;;;11.30;5.70;;;0.00;75.30;;;;;;5050915;28;20079;-68
2021/01/16 05:51:51;;;;;;;12.07;6.10;;;0.00;75.30;;;;;;5049241;28;20037;-68
2021/01/16 05:54:19;;;;;;;12.90;6.43;;;0.00;75.20;;;;;;5050647;28;20036;-68
2021/01/16 05:56:46;;;;;;;12.30;5.47;;;0.00;75.30;;;;;;5050836;28;20057;-68
2021/01/16 05:59:25;;;;;;;11.80;5.73;;;0.00;75.30;;;;;;5050421;28;20153;-67
2021/01/16 06:01:55;;;;;;;12.37;5.80;;;0.00;75.40;;;;;;5050697;28;20154;-67
2021/01/16 06:04:21;;;;;;;12.60;6.17;;;-0.10;75.10;;;;;;5016708;28;20130;-68
2021/01/16 06:06:48;;;;;;;11.97;5.87;;;-0.10;75.00;;;;;;5049657;28;20037;-68
2021/01/16 06:09:18;;;;;;;11.83;5.70;;;-0.10;75.30;;;;;;5050152;28;20524;-69
2021/01/16 06:11:50;;;;;;;14.00;6.40;;;-0.10;75.30;;;;;;5050038;28;20048;-68
2021/01/16 06:14:17;;;;;;;11.30;5.40;;;-0.20;75.10;;;;;;5049429;28;20041;-68
2021/01/16 06:16:51;;;;;;;11.57;5.50;;;-0.20;75.20;;;;;;5050236;28;20486;-68
2021/01/16 06:19:40;;;;;;;11.40;5.90;;;-0.20;75.40;;;;;;5049365;28;20045;-68
2021/01/16 06:22:10;;;;;;;11.07;5.50;;;-0.20;75.60;;;;;;5049781;28;20052;-69
2021/01/16 06:24:37;;;;;;;11.93;6.10;;;-0.20;75.60;;;;;;5050656;28;20410;-68
2021/01/16 06:27:04;;;;;;;11.17;6.00;;;-0.20;76.10;;;;;;5051246;28;20387;-68
2021/01/16 06:29:33;;;;;;;13.10;5.73;;;-0.20;75.60;;;;;;5053997;28;20095;-68
2021/01/16 06:32:10;;;;;;;12.07;5.87;;;-0.20;75.40;;;;;;5054323;28;20045;-69
2021/01/16 06:34:38;;;;;;;12.23;5.77;;;-0.20;75.40;;;;;;5054142;28;20064;-68
2021/01/16 06:37:05;;;;;;;13.17;6.27;;;-0.20;75.20;;;;;;5053008;28;20068;-67
2021/01/16 06:39:35;;;;;;;11.37;5.57;;;-0.20;75.30;;;;;;5053396;28;20063;-68
2021/01/16 06:42:06;;;;;;;12.57;6.27;;;-0.30;75.40;;;;;;5054208;28;20037;-68
2021/01/16 06:44:31;;;;;;;12.10;5.70;;;-0.30;75.30;;;;;;5053854;28;20133;-68
2021/01/16 06:47:00;;;;;;;13.50;5.77;;;-0.30;74.90;;;;;;5054233;28;20120;-68
2021/01/16 06:49:29;;;;;;;10.77;5.80;;;-0.40;74.90;;;;;;5052029;28;20040;-69
2021/01/16 06:52:00;;;;;;;12.50;5.90;;;-0.60;74.70;;;;;;5053975;28;20572;-68
2021/01/16 06:54:31;;;;;;;11.37;5.80;;;-0.70;74.60;;;;;;5052705;28;20162;-68
2021/01/16 06:57:10;;;;;;;12.60;6.67;;;-0.80;74.70;;;;;;5053764;28;20326;-69
2021/01/16 06:59:38;;;;;;;14.03;6.50;;;-1.00;74.80;;;;;;5052864;28;20378;-67
2021/01/16 07:02:33;;;;;;;14.33;6.63;;;-1.00;75.10;;;;;;5052579;28;20052;-67
2021/01/16 07:05:08;;;;;;;13.90;6.27;;;-1.10;75.30;;;;;;5050561;28;20072;-67
2021/01/16 07:07:36;;;;;;;14.80;6.40;;;-1.10;75.40;;;;;;5053969;28;20459;-68
2021/01/16 07:10:22;;;;;;;13.30;6.83;;;-1.20;75.30;;;;;;5050257;28;20040;-68
2021/01/16 07:12:50;;;;;;;13.00;6.27;;;-1.30;75.40;;;;;;5053902;28;20037;-68
2021/01/16 07:15:18;;;;;;;12.73;5.97;;;-1.30;75.30;;;;;;5052211;28;20037;-68
2021/01/16 07:17:45;;;;;;;11.50;5.93;;;-1.40;75.40;;;;;;5053643;28;20044;-68
2021/01/16 07:20:11;;;;;;;14.20;6.13;;;-1.50;75.60;;;;;;5052424;28;20045;-68
2021/01/16 07:22:41;;;;;;;15.53;6.30;;;-1.50;75.80;;;;;;5052064;28;20405;-67
2021/01/16 07:25:08;;;;;;;10.77;5.63;;;-1.60;76.00;;;;;;5053314;28;20036;-69
2021/01/16 07:27:35;;;;;;;13.87;6.30;;;-1.60;76.20;;;;;;5053629;28;20663;-68
2021/01/16 07:30:03;;;;;;;14.23;6.20;;;-1.70;76.20;;;;;;5052670;28;20037;-67
2021/01/16 07:32:40;;;;;;;13.60;6.00;;;-1.70;76.20;;;;;;5051994;28;20037;-66
2021/01/16 07:35:25;;;;;;;13.33;5.93;;;-1.70;76.40;;;;;;5053174;28;20037;-67
2021/01/16 07:37:52;;;;;;;13.20;6.03;;;-1.80;76.50;;;;;;5052682;28;20065;-68
2021/01/16 07:40:23;;;;;;;13.10;6.17;;;-1.80;76.60;;;;;;5050524;28;20057;-68
2021/01/16 07:42:53;;;;;;;14.20;6.68;;;-1.80;76.70;;;;;;5052992;28;20068;-69
2021/01/16 07:45:28;;;;;;;12.50;6.10;;;-1.80;76.90;;;;;;5052010;28;20056;-68
2021/01/16 07:47:57;;;;;;;12.50;6.30;;;-1.80;76.90;;;;;;5052862;28;20090;-67
2021/01/16 07:50:38;;;;;;;13.93;6.27;;;-1.80;77.00;;;;;;5052519;28;20041;-68
2021/01/16 07:53:05;;;;;;;14.27;6.87;;;-1.80;77.20;;;;;;5051446;28;20052;-67
2021/01/16 07:56:00;;;;;;;14.50;6.33;;;-1.70;78.10;;;;;;5051737;28;20029;-68
2021/01/16 07:58:32;;;;;;;13.70;6.43;;;-1.70;77.90;;;;;;5052681;28;20041;-65
2021/01/16 08:01:10;;;;;;;13.27;6.37;;;-1.60;77.90;;;;;;5052194;28;20552;-68
2021/01/16 08:03:58;;;;;;;15.00;7.47;;;-1.60;78.00;;;;;;5052678;28;20111;-67
2021/01/16 08:06:42;;;;;;;13.80;6.27;;;-1.60;78.10;;;;;;5052296;28;20179;-70
2021/01/16 08:09:25;;;;;;;16.97;6.70;;;-1.50;78.30;;;;;;5052847;28;20770;-66
2021/01/16 08:11:52;;;;;;;12.47;6.30;;;-1.50;78.60;;;;;;5051035;28;20048;-68
2021/01/16 08:14:21;;;;;;;15.63;6.43;;;-1.40;78.90;;;;;;5052704;28;20118;-68
2021/01/16 08:16:59;;;;;;;14.67;6.77;;;-1.30;79.00;;;;;;5052216;28;20037;-68
2021/01/16 08:19:46;;;;;;;13.27;5.93;;;-1.30;79.00;;;;;;5051154;28;20094;-66
2021/01/16 08:22:19;;;;;;;12.77;6.17;;;-1.20;79.10;;;;;;5052103;28;20040;-68
2021/01/16 08:25:02;;;;;;;13.67;6.13;;;-1.00;79.30;;;;;;5052549;28;20037;-67
2021/01/16 08:27:36;;;;;;;13.47;6.47;;;-1.00;79.60;;;;;;5063982;28;20148;-67
2021/01/16 08:30:11;;;;;;;15.10;7.00;;;-0.90;78.90;;;;;;5050060;28;20056;-66
2021/01/16 08:33:08;;;;;;;15.30;6.30;;;-0.80;78.80;;;;;;5051831;28;20037;-67
2021/01/16 08:35:36;;;;;;;13.57;6.57;;;-0.80;78.80;;;;;;5042987;28;20037;-67
2021/01/16 08:38:17;;;;;;;13.07;6.23;;;-0.80;78.70;;;;;;5050861;28;20116;-67
2021/01/16 08:41:06;;;;;;;14.97;6.50;;;-0.70;79.10;;;;;;5050868;28;20037;-67
2021/01/16 08:43:43;;;;;;;13.80;6.40;;;-0.60;80.00;;;;;;5051722;28;20037;-68
2021/01/16 08:46:24;;;;;;;12.97;5.77;;;-0.30;80.50;;;;;;5051972;28;20412;-66
2021/01/16 08:49:19;;;;;;;13.68;5.78;;;0.00;80.50;;;;;;5050361;28;20048;-67
2021/01/16 08:51:51;;;;;;;13.07;5.80;;;0.30;80.30;;;;;;5041687;28;20044;-68
2021/01/16 08:54:21;;;;;;;12.13;5.90;;;0.60;79.80;;;;;;5050508;28;20059;-68
2021/01/16 08:56:52;;;;;;;11.27;5.27;;;0.90;79.30;;;;;;5049841;28;20041;-68
2021/01/16 08:59:29;;;;;;;13.90;6.40;;;1.00;78.80;;;;;;5050578;28;20044;-68
2021/01/16 09:02:11;;;;;;;11.40;5.37;;;1.10;78.80;;;;;;5049707;28;20056;-67
2021/01/16 09:04:40;;;;;;;10.20;5.40;;;1.20;77.70;;;;;;5051759;28;20032;-67
2021/01/16 09:07:12;;;;;;;10.13;4.87;;;1.30;77.90;;;;;;5051217;28;20041;-66
2021/01/16 09:09:39;;;;;;;10.67;5.13;;;1.70;78.10;;;;;;5049482;28;20041;-68
2021/01/16 09:12:12;;;;;;;10.10;5.23;;;2.10;77.30;;;;;;5032976;28;20132;-67
2021/01/16 09:14:40;;;;;;;11.63;5.30;;;2.50;76.80;;;;;;5051162;28;20492;-67
2021/01/16 09:17:20;;;;;;;10.13;4.70;;;2.90;76.30;;;;;;5049324;28;20048;-67
2021/01/16 09:19:57;;;;;;;9.50;4.90;;;3.30;75.40;;;;;;5050729;28;20128;-68
2021/01/16 09:22:26;;;;;;;9.63;4.77;;;3.30;74.70;;;;;;5049467;28;20528;-67
2021/01/16 09:24:52;;;;;;;10.63;5.07;;;3.30;74.20;;;;;;5051290;28;20041;-68
2021/01/16 09:27:29;;;;;;;8.83;4.37;;;3.10;72.50;;;;;;5049543;28;20106;-68
2021/01/16 09:29:56;;;;;;;9.23;4.50;;;2.90;73.00;;;;;;5050334;28;20401;-68
2021/01/16 09:32:31;;;;;;;10.43;5.03;;;2.70;73.10;;;;;;5049286;28;20055;-68
2021/01/16 09:34:58;;;;;;;9.70;5.20;;;2.70;73.90;;;;;;5049731;28;20098;-68
2021/01/16 09:37:26;;;;;;;9.90;5.07;;;2.70;73.20;;;;;;5050501;28;20459;-68
2021/01/16 09:40:07;;;;;;;10.10;4.67;;;2.60;72.90;;;;;;5050590;28;20032;-68
2021/01/16 09:42:48;;;;;;;10.20;5.00;;;2.50;73.50;;;;;;5050404;28;20037;-68
2021/01/16 09:45:17;;;;;;;12.73;5.18;;;2.60;73.30;;;;;;5050662;28;20044;-69
2021/01/16 09:47:50;;;;;;;8.80;4.53;;;2.60;73.10;;;;;;5050440;28;20036;-68
2021/01/16 09:50:21;;;;;;;9.63;4.53;;;2.70;73.00;;;;;;5050096;28;20120;-67
2021/01/16 09:52:55;;;;;;;9.07;4.73;;;2.70;73.00;;;;;;5052944;28;20104;-68
2021/01/16 09:55:31;;;;;;;7.80;4.00;;;2.70;72.30;;;;;;5068146;28;20032;-68
2021/01/16 09:57:59;;;;;;;9.53;4.50;;;2.70;71.90;;;;;;5063059;28;20164;-67
2021/01/16 10:00:29;;;;;;;9.43;5.00;;;2.60;71.00;;;;;;5060177;28;20405;-68
2021/01/16 10:03:04;;;;;;;9.33;4.70;;;2.60;70.70;;;;;;5067332;28;20041;-68
2021/01/16 10:05:32;;;;;;;8.87;4.53;;;2.40;70.50;;;;;;5067201;28;20561;-68
2021/01/16 10:07:59;;;;;;;9.60;4.50;;;2.40;71.10;;;;;;5064038;28;20079;-68
2021/01/16 10:10:26;;;;;;;9.00;5.00;;;2.50;71.20;;;;;;5066374;28;20044;-68
2021/01/16 10:12:59;;;;;;;9.43;5.13;;;2.70;71.20;;;;;;5066445;28;20400;-69
2021/01/16 10:15:28;;;;;;;9.33;4.53;;;2.80;69.60;;;;;;5060440;28;20098;-68
2021/01/16 10:17:56;;;;;;;9.87;5.03;;;3.00;69.80;;;;;;5057590;28;20120;-67
2021/01/16 10:20:34;;;;;;;10.07;4.83;;;3.00;68.40;;;;;;5056882;28;20052;-68
2021/01/16 10:23:05;;;;;;;11.40;5.33;;;3.00;68.70;;;;;;5057723;28;20060;-70
2021/01/16 10:25:40;;;;;;;10.90;4.70;;;3.00;68.10;;;;;;5049795;28;20047;-69
2021/01/16 10:28:29;;;;;;;9.67;4.93;;;2.90;67.90;;;;;;5050540;28;20127;-68
2021/01/16 10:31:04;;;;;;;9.57;4.83;;;2.80;68.10;;;;;;5053712;28;20029;-69
2021/01/16 10:33:42;;;;;;;11.57;5.00;;;2.70;67.50;;;;;;5070558;28;20036;-69
2021/01/16 10:36:15;;;;;;;10.73;4.80;;;2.60;66.60;;;;;;5061744;28;20036;-67
2021/01/16 10:38:41;;;;;;;10.43;4.87;;;2.40;67.20;;;;;;5068964;28;20045;-68
2021/01/16 10:41:15;;;;;;;11.40;5.93;;;2.40;67.90;;;;;;5069097;28;20386;-69
2021/01/16 10:43:42;;;;;;;10.17;5.27;;;2.50;67.80;;;;;;5070318;28;20036;-68
2021/01/16 10:46:14;;;;;;;10.47;5.13;;;2.40;66.80;;;;;;5069935;28;20114;-69
2021/01/16 10:48:40;;;;;;;11.80;6.07;;;2.20;67.20;;;;;;5068927;28;20041;-69
2021/01/16 10:51:09;;;;;;;9.07;4.77;;;2.30;68.20;;;;;;5065246;28;20041;-68
2021/01/16 10:53:37;;;;;;;10.30;5.43;;;2.40;68.30;;;;;;5058581;28;20041;-69
2021/01/16 10:56:15;;;;;;;10.83;5.37;;;2.60;68.10;;;;;;5055660;28;20099;-70
2021/01/16 10:58:43;;;;;;;11.17;5.30;;;2.90;68.10;;;;;;5073560;28;20512;-68
2021/01/16 11:01:10;;;;;;;10.60;5.63;;;3.30;68.30;;;;;;5064341;28;20040;-69
2021/01/16 11:03:35;;;;;;;9.77;5.27;;;3.60;67.60;;;;;;5057667;28;20053;-69
2021/01/16 11:06:08;;;;;;;11.27;5.43;;;3.70;65.90;;;;;;5061226;28;20107;-68
2021/01/16 11:08:39;;;;;;;10.37;5.80;;;3.50;65.10;;;;;;5051412;28;20060;-69
2021/01/16 11:11:33;;;;;;;10.20;5.60;;;3.30;65.50;;;;;;5057110;28;20409;-68
2021/01/16 11:14:00;;;;;;;10.03;5.17;;;3.20;65.80;;;;;;5052112;28;20485;-67
2021/01/16 11:16:26;;;;;;;9.80;5.70;;;3.10;65.70;;;;;;5050051;28;20044;-69
2021/01/16 11:18:52;;;;;;;10.07;5.50;;;3.00;66.00;;;;;;5067745;28;20036;-69
2021/01/16 11:21:36;;;;;;;11.00;5.67;;;3.00;66.00;;;;;;5058399;28;20120;-69
2021/01/16 11:24:32;;;;;;;10.30;5.40;;;3.00;65.90;;;;;;5069416;28;20054;-68
2021/01/16 11:27:02;;;;;;;10.20;5.43;;;3.10;66.90;;;;;;5072527;28;20036;-69
2021/01/16 11:29:40;;;;;;;10.63;5.53;;;3.30;66.70;;;;;;5054387;28;20047;-67
2021/01/16 11:32:19;;;;;;;10.87;5.63;;;3.40;65.90;;;;;;5070097;28;20055;-69
2021/01/16 11:35:08;;;;;;;11.37;5.80;;;3.80;66.20;;;;;;5058363;28;20044;-67
2021/01/16 11:37:47;;;;;;;11.57;5.53;;;4.10;65.10;;;;;;5062995;28;20045;-66
2021/01/16 11:40:30;;;;;;;11.53;5.97;;;4.10;64.30;;;;;;5062771;28;20067;-67
2021/01/16 11:43:07;;;;;;;11.33;5.40;;;4.10;64.60;;;;;;5065637;28;20044;-69
2021/01/16 11:45:33;;;;;;;11.17;5.67;;;4.10;64.10;;;;;;5063348;28;20042;-67
2021/01/16 11:48:02;;;;;;;10.63;5.30;;;4.10;64.70;;;;;;5063458;28;20056;-69
2021/01/16 11:50:33;;;;;;;10.80;5.83;;;4.30;64.10;;;;;;5062354;28;20036;-69
2021/01/16 11:53:11;;;;;;;10.33;5.63;;;4.50;63.60;;;;;;5064551;28;20115;-67
2021/01/16 11:55:38;;;;;;;11.67;5.57;;;4.40;61.90;;;;;;5063406;28;20490;-68
2021/01/16 11:58:05;;;;;;;11.33;5.70;;;4.00;61.30;;;;;;5064828;28;20037;-68
2021/01/16 12:00:31;;;;;;;12.17;6.03;;;3.50;61.50;;;;;;5061773;28;20451;-69
2021/01/16 12:02:58;;;;;;;13.13;6.03;;;3.10;62.20;;;;;;5063842;28;20037;-67
2021/01/16 12:05:26;;;;;;;12.30;6.50;;;2.90;63.30;;;;;;5064714;28;20135;-68
2021/01/16 12:07:53;;;;;;;11.50;5.67;;;3.10;64.50;;;;;;5055237;28;20044;-72
2021/01/16 12:10:23;;;;;;;13.73;6.10;;;3.90;65.80;;;;;;5068413;28;20321;-68
2021/01/16 12:12:49;;;;;;;12.23;5.78;;;5.10;65.80;;;;;;5059549;28;20529;-69
2021/01/16 12:15:25;;;;;;;10.57;5.47;;;6.20;63.00;;;;;;5061359;28;20037;-67
2021/01/16 12:17:53;;;;;;;10.47;5.57;;;7.10;60.80;;;;;;5067886;28;20036;-67
2021/01/16 12:20:23;;;;;;;9.80;5.43;;;7.80;59.30;;;;;;5051606;28;20178;-67
2021/01/16 12:22:54;;;;;;;9.13;5.03;;;8.20;58.90;;;;;;5069893;28;20044;-69
2021/01/16 12:25:26;;;;;;;9.80;5.47;;;8.90;59.10;;;;;;5069315;28;20050;-68
2021/01/16 12:27:53;;;;;;;11.10;5.60;;;9.20;57.20;;;;;;5072117;28;20056;-68
2021/01/16 12:30:21;;;;;;;10.80;5.23;;;9.10;55.80;;;;;;5071174;28;20174;-69
2021/01/16 12:32:48;;;;;;;10.13;5.57;;;8.80;55.40;;;;;;5072023;28;20140;-69
2021/01/16 12:35:15;;;;;;;10.13;5.57;;;8.10;53.70;;;;;;5037677;28;20127;-69
2021/01/16 12:37:42;;;;;;;10.03;5.53;;;7.30;53.20;;;;;;5070749;28;20536;-69
2021/01/16 12:40:20;;;;;;;10.03;5.60;;;6.50;54.20;;;;;;5059538;28;20115;-66
2021/01/16 12:42:47;;;;;;;10.37;5.80;;;6.10;56.00;;;;;;5061075;28;20134;-70
2021/01/16 12:45:15;;;;;;;10.73;5.63;;;5.90;56.10;;;;;;5061963;28;20036;-69
2021/01/16 12:47:43;;;;;;;11.50;5.80;;;5.80;56.20;;;;;;5061399;28;20028;-69
2021/01/16 12:50:10;;;;;;;9.93;5.27;;;5.60;56.10;;;;;;5063762;28;20039;-69
2021/01/16 12:52:36;;;;;;;10.27;5.20;;;5.40;56.50;;;;;;5061898;28;20033;-69
2021/01/16 12:55:08;;;;;;;11.30;5.43;;;5.20;56.60;;;;;;5060033;28;20039;-69
2021/01/16 12:57:38;;;;;;;9.60;5.47;;;5.00;56.70;;;;;;5046871;28;20048;-69
2021/01/16 13:00:06;;;;;;;11.33;5.33;;;4.70;56.70;;;;;;5061185;28;20045;-69
2021/01/16 13:02:33;;;;;;;10.60;5.27;;;4.50;57.10;;;;;;5058803;28;20036;-68